createdAt,value
2023-05-06T00:01:45.210Z,2.83
2023-05-06T00:04:12.686Z,2.63
2023-05-06T00:06:41.660Z,2.92
2023-05-06T00:09:09.613Z,2.42
2023-05-06T00:11:37.215Z,2.38
2023-05-06T00:14:04.741Z,2.78
2023-05-06T00:16:33.661Z,2.92
2023-05-06T00:19:01.357Z,2.15
2023-05-06T00:21:28.838Z,3.03
2023-05-06T00:23:56.410Z,3.45
2023-05-06T00:26:23.945Z,2.97
2023-05-06T00:28:51.431Z,3.45
2023-05-06T00:31:18.969Z,2.40
2023-05-06T00:33:47.776Z,3.50
2023-05-06T00:36:15.326Z,3.85
2023-05-06T00:38:42.778Z,3.95
2023-05-06T00:41:10.254Z,5.07
2023-05-06T00:43:37.749Z,3.70
2023-05-06T00:46:12.122Z,3.63
2023-05-06T00:48:40.588Z,5.05
2023-05-06T00:51:09.441Z,3.17
2023-05-06T00:53:37.068Z,4.88
2023-05-06T00:56:04.935Z,4.85
2023-05-06T00:58:32.516Z,3.55
2023-05-06T01:01:01.742Z,4.57
2023-05-06T01:03:29.436Z,5.00
2023-05-06T01:06:08.225Z,5.00
2023-05-06T01:08:45.354Z,4.00
2023-05-06T01:11:15.917Z,3.88
2023-05-06T01:13:48.066Z,5.10
2023-05-06T01:16:18.858Z,5.15
2023-05-06T01:18:49.716Z,5.28
2023-05-06T01:21:19.167Z,5.43
2023-05-06T01:23:57.617Z,3.97
2023-05-06T01:26:25.757Z,5.55
2023-05-06T01:28:53.865Z,5.63
2023-05-06T01:31:27.017Z,5.00
2023-05-06T01:34:06.915Z,6.10
2023-05-06T01:36:39.963Z,4.88
2023-05-06T01:39:17.471Z,4.85
2023-05-06T01:41:48.043Z,3.28
2023-05-06T01:44:16.520Z,4.32
2023-05-06T01:46:46.130Z,3.85
2023-05-06T01:49:15.781Z,5.40
2023-05-06T01:51:48.819Z,5.03
2023-05-06T01:54:17.897Z,4.88
2023-05-06T01:56:45.430Z,5.15
2023-05-06T01:59:13.101Z,4.22
2023-05-06T02:01:40.714Z,5.40
2023-05-06T02:04:08.333Z,4.75
2023-05-06T02:06:35.844Z,5.53
2023-05-06T02:09:03.347Z,5.00
2023-05-06T02:11:32.179Z,5.65
2023-05-06T02:13:59.668Z,4.05
2023-05-06T02:16:28.710Z,5.10
2023-05-06T02:18:56.444Z,5.13
2023-05-06T02:21:24.014Z,5.65
2023-05-06T02:23:51.483Z,5.70
2023-05-06T02:26:18.955Z,4.78
2023-05-06T02:28:47.756Z,5.78
2023-05-06T02:31:16.144Z,5.47
2023-05-06T02:33:44.731Z,4.95
2023-05-06T02:36:12.290Z,4.30
2023-05-06T02:38:39.841Z,4.70
2023-05-06T02:41:07.342Z,5.18
2023-05-06T02:43:34.806Z,5.68
2023-05-06T02:46:03.669Z,6.00
2023-05-06T02:48:31.254Z,5.80
2023-05-06T02:50:58.704Z,5.32
2023-05-06T02:53:26.226Z,5.07
2023-05-06T02:55:53.827Z,5.47
2023-05-06T02:58:21.285Z,4.93
2023-05-06T03:00:48.760Z,6.55
2023-05-06T03:03:18.071Z,5.13
2023-05-06T03:05:45.723Z,4.85
2023-05-06T03:08:13.178Z,5.05
2023-05-06T03:10:40.632Z,5.63
2023-05-06T03:13:08.196Z,6.88
2023-05-06T03:15:35.796Z,6.03
2023-05-06T03:18:03.297Z,6.60
2023-05-06T03:20:32.113Z,5.88
2023-05-06T03:22:59.737Z,6.13
2023-05-06T03:25:27.215Z,5.97
2023-05-06T03:27:54.975Z,5.72
2023-05-06T03:30:22.415Z,5.45
2023-05-06T03:32:49.942Z,5.75
2023-05-06T03:35:17.874Z,5.63
2023-05-06T03:37:46.710Z,5.85
2023-05-06T03:40:14.331Z,5.93
2023-05-06T03:42:41.808Z,6.22
2023-05-06T03:45:10.043Z,4.95
2023-05-06T03:47:38.172Z,6.03
2023-05-06T03:50:06.517Z,5.40
2023-05-06T03:52:34.034Z,6.00
2023-05-06T03:55:03.162Z,6.65
2023-05-06T03:57:30.672Z,5.90
2023-05-06T03:59:58.155Z,6.43
2023-05-06T04:02:25.860Z,5.78
2023-05-06T04:04:53.498Z,6.60
2023-05-06T04:07:20.946Z,6.32
2023-05-06T04:09:48.394Z,6.97
2023-05-06T04:12:17.194Z,5.88
2023-05-06T04:14:44.693Z,6.28
2023-05-06T04:17:12.168Z,5.93
2023-05-06T04:19:39.613Z,5.47
2023-05-06T04:22:07.341Z,5.45
2023-05-06T04:24:34.775Z,5.53
2023-05-06T04:27:04.105Z,7.00
2023-05-06T04:29:32.961Z,7.00
2023-05-06T04:32:00.537Z,8.00
2023-05-06T04:34:28.867Z,7.32
2023-05-06T04:39:24.086Z,6.93
2023-05-06T04:41:51.635Z,7.35
2023-05-06T04:44:19.387Z,7.78
2023-05-06T04:46:48.473Z,8.35
2023-05-06T04:49:15.925Z,8.40
2023-05-06T04:51:43.368Z,8.27
2023-05-06T04:54:11.003Z,8.10
2023-05-06T04:56:38.495Z,7.93
2023-05-06T04:59:05.958Z,9.25
2023-05-06T05:01:33.426Z,7.22
2023-05-06T05:04:02.248Z,6.90
2023-05-06T05:06:29.721Z,6.72
2023-05-06T05:08:57.191Z,7.60
2023-05-06T05:11:24.657Z,8.30
2023-05-06T05:13:53.379Z,6.85
2023-05-06T05:16:21.850Z,6.97
2023-05-06T05:18:49.339Z,6.32
2023-05-06T05:21:18.122Z,6.50
2023-05-06T05:23:45.627Z,6.68
2023-05-06T05:26:13.108Z,6.70
2023-05-06T05:28:40.636Z,6.95
2023-05-06T05:31:10.213Z,7.50
2023-05-06T05:33:38.094Z,7.35
2023-05-06T05:36:06.061Z,7.82
2023-05-06T05:38:34.917Z,6.63
2023-05-06T05:41:02.595Z,7.10
2023-05-06T05:43:31.384Z,5.78
2023-05-06T05:45:59.024Z,5.72
2023-05-06T05:48:26.499Z,6.78
2023-05-06T05:50:54.141Z,6.22
2023-05-06T05:53:21.574Z,6.63
2023-05-06T05:55:52.370Z,6.18
2023-05-06T05:58:20.276Z,5.53
2023-05-06T06:00:47.863Z,5.85
2023-05-06T06:03:15.452Z,5.70
2023-05-06T06:05:43.157Z,6.63
2023-05-06T06:08:10.782Z,6.30
2023-05-06T06:10:38.238Z,7.28
2023-05-06T06:13:07.102Z,5.57
2023-05-06T06:15:34.793Z,6.60
2023-05-06T06:18:02.622Z,5.82
2023-05-06T06:20:30.113Z,6.18
2023-05-06T06:22:57.583Z,4.70
2023-05-06T06:25:25.023Z,3.65
2023-05-06T06:27:52.475Z,4.18
2023-05-06T06:30:21.320Z,3.83
2023-05-06T06:32:50.086Z,3.08
2023-05-06T06:35:19.006Z,5.45
2023-05-06T06:37:46.913Z,5.53
2023-05-06T06:40:15.034Z,5.20
2023-05-06T06:42:42.484Z,5.80
2023-05-06T06:45:10.925Z,5.72
2023-05-06T06:47:40.002Z,5.72
2023-05-06T06:50:09.106Z,6.43
2023-05-06T06:52:36.895Z,6.07
2023-05-06T06:55:05.070Z,5.95
2023-05-06T06:57:32.571Z,4.07
2023-05-06T07:00:00.087Z,6.32
2023-05-06T07:02:27.621Z,5.93
2023-05-06T07:04:56.414Z,6.10
2023-05-06T07:07:23.897Z,6.60
2023-05-06T07:09:51.347Z,7.28
2023-05-06T07:12:18.801Z,6.88
2023-05-06T07:14:46.376Z,4.70
2023-05-06T07:17:14.295Z,7.00
2023-05-06T07:19:41.772Z,5.00
2023-05-06T07:22:10.588Z,5.95
2023-05-06T07:24:38.118Z,5.05
2023-05-06T07:27:05.767Z,6.10
2023-05-06T07:29:34.787Z,4.80
2023-05-06T07:32:02.291Z,5.95
2023-05-06T07:34:29.786Z,6.00
2023-05-06T07:36:57.224Z,6.63
2023-05-06T07:39:26.259Z,6.15
2023-05-06T07:41:53.847Z,7.53
2023-05-06T07:44:21.333Z,6.63
2023-05-06T07:46:49.114Z,10.52
2023-05-06T07:49:16.590Z,6.47
2023-05-06T07:51:45.643Z,6.00
2023-05-06T07:54:13.336Z,5.75
2023-05-06T07:56:42.225Z,5.97
2023-05-06T07:59:09.738Z,4.63
2023-05-06T08:01:37.397Z,6.28
2023-05-06T08:04:05.133Z,6.75
2023-05-06T08:06:33.016Z,8.10
2023-05-06T08:09:00.662Z,5.80
2023-05-06T08:11:28.130Z,6.20
2023-05-06T08:13:56.914Z,6.50
2023-05-06T08:16:25.481Z,4.60
2023-05-06T08:18:53.243Z,4.55
2023-05-06T08:21:20.687Z,5.15
2023-05-06T08:23:48.215Z,4.53
2023-05-06T08:26:15.741Z,4.00
2023-05-06T08:28:43.208Z,4.15
2023-05-06T08:31:12.103Z,5.20
2023-05-06T08:33:39.562Z,4.45
2023-05-06T08:36:07.488Z,4.88
2023-05-06T08:38:34.937Z,3.72
2023-05-06T08:41:08.834Z,2.80
2023-05-06T08:43:41.820Z,2.17
2023-05-06T08:46:09.676Z,3.30
2023-05-06T08:48:38.590Z,2.63
2023-05-06T08:51:06.932Z,3.22
2023-05-06T08:53:34.831Z,2.75
2023-05-06T08:56:04.985Z,3.10
2023-05-06T08:58:34.849Z,3.10
2023-05-06T09:01:04.120Z,2.95
2023-05-06T09:03:32.038Z,3.00
2023-05-06T09:06:00.932Z,2.35
2023-05-06T09:08:28.391Z,2.00
2023-05-06T09:10:55.930Z,2.00
2023-05-06T09:13:23.454Z,2.30
2023-05-06T09:15:55.139Z,2.00
2023-05-06T09:18:23.746Z,1.92
2023-05-06T09:20:51.449Z,1.92
2023-05-06T09:23:23.586Z,2.55
2023-05-06T09:25:51.267Z,2.13
2023-05-06T09:28:18.734Z,2.33
2023-05-06T09:30:47.470Z,2.20
2023-05-06T09:33:15.187Z,1.55
2023-05-06T09:35:44.379Z,1.98
2023-05-06T09:38:11.977Z,1.70
2023-05-06T09:40:40.842Z,0.98
2023-05-06T09:43:09.888Z,1.30
2023-05-06T09:45:37.675Z,1.77
2023-05-06T09:48:05.533Z,1.85
2023-05-06T09:50:33.707Z,2.05
2023-05-06T09:53:03.548Z,1.30
2023-05-06T09:55:31.498Z,1.30
2023-05-06T09:58:01.547Z,1.30
2023-05-06T10:00:31.367Z,1.40
2023-05-06T10:03:00.097Z,1.45
2023-05-06T10:05:29.687Z,1.75
2023-05-06T10:07:58.169Z,1.10
2023-05-06T10:10:28.098Z,1.20
2023-05-06T10:12:56.350Z,1.50
2023-05-06T10:15:26.945Z,1.58
2023-05-06T10:17:55.231Z,1.48
2023-05-06T10:20:25.699Z,1.20
2023-05-06T10:23:02.078Z,1.35
2023-05-06T10:25:36.668Z,1.00
2023-05-06T10:28:08.026Z,1.27
2023-05-06T10:30:41.263Z,1.42
2023-05-06T10:33:11.242Z,1.42
2023-05-06T10:35:45.944Z,1.40
2023-05-06T10:38:18.964Z,1.10
2023-05-06T10:40:47.601Z,1.23
2023-05-06T10:43:25.529Z,1.60
2023-05-06T10:46:06.962Z,1.55
2023-05-06T10:48:34.856Z,1.73
2023-05-06T10:51:28.187Z,1.60
2023-05-06T10:54:02.247Z,1.40
2023-05-06T10:56:31.441Z,1.33
2023-05-06T10:59:04.011Z,1.20
2023-05-06T11:01:32.889Z,1.30
2023-05-06T11:04:05.768Z,1.05
2023-05-06T11:06:34.828Z,0.98
2023-05-06T11:09:04.008Z,1.42
2023-05-06T11:11:51.994Z,1.30
2023-05-06T11:14:28.142Z,1.05
2023-05-06T11:16:58.245Z,1.38
2023-05-06T11:19:27.014Z,1.17
2023-05-06T11:21:57.631Z,1.00
2023-05-06T11:24:27.480Z,0.93
2023-05-06T11:26:55.546Z,0.70
2023-05-06T11:29:23.924Z,0.85
2023-05-06T11:31:52.868Z,0.68
2023-05-06T11:34:25.060Z,0.60
2023-05-06T11:37:00.586Z,0.82
2023-05-06T11:39:30.611Z,1.10
2023-05-06T11:42:03.765Z,1.30
2023-05-06T11:44:33.007Z,1.10
2023-05-06T11:47:02.023Z,1.25
2023-05-06T11:49:31.005Z,0.95
2023-05-06T11:51:58.488Z,1.20
2023-05-06T11:54:27.680Z,1.00
2023-05-06T11:56:57.445Z,1.20
2023-05-06T11:59:30.413Z,1.00
2023-05-06T12:01:59.738Z,1.08
2023-05-06T12:04:27.447Z,0.70
2023-05-06T12:06:57.152Z,0.88
2023-05-06T12:09:25.449Z,0.70
2023-05-06T12:11:53.531Z,0.70
2023-05-06T12:14:21.249Z,0.60
2023-05-06T12:16:48.900Z,0.60
2023-05-06T12:19:19.387Z,0.85
2023-05-06T12:21:47.245Z,0.65
2023-05-06T12:24:16.565Z,0.90
2023-05-06T12:26:46.110Z,1.10
2023-05-06T12:29:17.600Z,0.75
2023-05-06T12:31:47.075Z,0.52
2023-05-06T12:34:16.030Z,0.60
2023-05-06T12:36:45.572Z,0.52
2023-05-06T12:39:14.425Z,0.73
2023-05-06T12:41:44.959Z,0.70
2023-05-06T12:44:32.145Z,0.60
2023-05-06T12:47:00.547Z,0.50
2023-05-06T12:49:28.203Z,0.70
2023-05-06T12:52:09.472Z,0.60
2023-05-06T12:54:37.377Z,0.60
2023-05-06T12:57:06.684Z,0.82
2023-05-06T12:59:35.714Z,0.88
2023-05-06T13:02:03.346Z,0.63
2023-05-06T13:04:30.989Z,0.60
2023-05-06T13:06:58.778Z,0.65
2023-05-06T13:09:26.800Z,0.50
2023-05-06T13:11:55.082Z,0.70
2023-05-06T13:14:23.967Z,0.70
2023-05-06T13:16:51.584Z,0.80
2023-05-06T13:19:31.584Z,0.57
2023-05-06T13:22:00.387Z,0.50
2023-05-06T13:24:28.130Z,0.50
2023-05-06T13:26:56.267Z,0.60
2023-05-06T13:29:25.370Z,0.47
2023-05-06T13:31:53.721Z,0.75
2023-05-06T13:34:21.241Z,0.70
2023-05-06T13:36:49.554Z,0.70
2023-05-06T13:39:17.453Z,0.70
2023-05-06T13:41:47.403Z,0.50
2023-05-06T13:44:14.892Z,0.60
2023-05-06T13:46:45.622Z,0.50
2023-05-06T13:49:14.861Z,0.50
2023-05-06T13:51:42.338Z,0.85
2023-05-06T13:54:10.078Z,0.50
2023-05-06T13:56:37.713Z,0.80
2023-05-06T13:59:05.276Z,0.60
2023-05-06T14:01:32.941Z,0.85
2023-05-06T14:04:01.782Z,0.50
2023-05-06T14:06:29.297Z,0.60
2023-05-06T14:08:56.834Z,0.70
2023-05-06T14:11:24.473Z,1.40
2023-05-06T14:13:51.925Z,0.60
2023-05-06T14:16:19.469Z,0.90
2023-05-06T14:18:46.923Z,0.50
2023-05-06T14:21:15.750Z,0.82
2023-05-06T14:23:43.231Z,0.70
2023-05-06T14:26:10.878Z,0.40
2023-05-06T14:28:38.330Z,0.40
2023-05-06T14:31:06.178Z,0.32
2023-05-06T14:33:33.773Z,0.32
2023-05-06T14:36:03.281Z,0.30
2023-05-06T14:38:32.246Z,0.45
2023-05-06T14:40:59.981Z,0.45
2023-05-06T14:43:27.453Z,0.50
2023-05-06T14:45:54.979Z,0.70
2023-05-06T14:48:22.567Z,0.50
2023-05-06T14:50:49.983Z,0.50
2023-05-06T14:53:17.447Z,0.50
2023-05-06T14:55:46.289Z,0.70
2023-05-06T14:58:13.744Z,0.80
2023-05-06T15:00:41.317Z,1.02
2023-05-06T15:03:08.849Z,0.55
2023-05-06T15:05:37.077Z,0.70
2023-05-06T15:08:04.710Z,0.50
2023-05-06T15:10:32.263Z,0.30
2023-05-06T15:13:01.161Z,0.65
2023-05-06T15:15:28.851Z,0.70
2023-05-06T15:17:56.463Z,0.82
2023-05-06T15:20:24.129Z,0.60
2023-05-06T15:22:51.626Z,0.70
2023-05-06T15:25:33.348Z,0.70
2023-05-06T15:28:03.694Z,0.63
2023-05-06T15:30:31.259Z,0.65
2023-05-06T15:32:58.812Z,1.20
2023-05-06T15:35:27.095Z,0.80
2023-05-06T15:37:58.339Z,0.70
2023-05-06T15:40:26.396Z,0.60
2023-05-06T15:45:23.542Z,0.70
2023-05-06T15:47:51.170Z,0.50
2023-05-06T15:50:32.420Z,0.60
2023-05-06T15:53:01.176Z,0.82
2023-05-06T15:55:28.828Z,0.95
2023-05-06T15:58:00.436Z,1.20
2023-05-06T16:00:29.642Z,0.85
2023-05-06T16:02:57.244Z,0.70
2023-05-06T16:05:24.896Z,0.80
2023-05-06T16:07:52.341Z,0.70
2023-05-06T16:10:19.787Z,0.80
2023-05-06T16:12:47.344Z,1.00
2023-05-06T16:15:14.873Z,1.02
2023-05-06T16:17:43.786Z,0.73
2023-05-06T16:20:12.751Z,0.80
2023-05-06T16:22:40.828Z,0.80
2023-05-06T16:25:08.899Z,0.80
2023-05-06T16:30:03.884Z,0.73
2023-05-06T16:32:31.577Z,0.70
2023-05-06T16:35:00.648Z,0.80
2023-05-06T16:37:29.029Z,0.70
2023-05-06T16:39:56.677Z,0.70
2023-05-06T16:42:24.177Z,0.82
2023-05-06T16:44:52.141Z,1.20
2023-05-06T16:47:23.145Z,0.77
2023-05-06T16:49:50.859Z,0.98
2023-05-06T16:52:20.156Z,0.82
2023-05-06T16:54:47.777Z,1.10
2023-05-06T16:57:15.371Z,0.63
2023-05-06T16:59:42.822Z,0.80
2023-05-06T17:02:10.447Z,0.90
2023-05-06T17:04:38.056Z,1.00
2023-05-06T17:07:05.618Z,1.00
2023-05-06T17:09:34.495Z,0.90
2023-05-06T17:12:02.362Z,1.88
2023-05-06T17:14:29.796Z,0.93
2023-05-06T17:16:58.826Z,0.80
2023-05-06T17:19:26.540Z,0.70
2023-05-06T17:21:54.015Z,0.70
2023-05-06T17:24:21.643Z,0.75
2023-05-06T17:26:50.443Z,0.70
2023-05-06T17:29:18.002Z,0.60
2023-05-06T17:31:45.470Z,0.63
2023-05-06T17:34:12.905Z,0.70
2023-05-06T17:36:40.395Z,0.80
2023-05-06T17:39:09.425Z,0.57
2023-05-06T17:41:37.119Z,0.75
2023-05-06T17:44:06.751Z,0.73
2023-05-06T17:46:34.317Z,0.55
2023-05-06T17:49:01.986Z,0.77
2023-05-06T17:51:29.421Z,0.75
2023-05-06T17:53:58.154Z,0.73
2023-05-06T17:56:26.117Z,0.70
2023-05-06T17:58:53.577Z,0.85
2023-05-06T18:01:22.511Z,0.77
2023-05-06T18:03:50.156Z,0.70
2023-05-06T18:06:18.530Z,0.90
2023-05-06T18:08:46.136Z,0.73
2023-05-06T18:11:13.650Z,0.70
2023-05-06T18:13:41.149Z,0.80
2023-05-06T18:16:08.849Z,0.55
2023-05-06T18:18:37.647Z,1.10
2023-05-06T18:21:05.152Z,0.70
2023-05-06T18:23:33.119Z,0.60
2023-05-06T18:26:00.703Z,0.70
2023-05-06T18:28:28.155Z,0.50
2023-05-06T18:30:55.602Z,0.82
2023-05-06T18:33:23.150Z,0.80
2023-05-06T18:35:51.984Z,0.77
2023-05-06T18:38:19.457Z,0.90
2023-05-06T18:40:48.122Z,1.10
2023-05-06T18:43:15.594Z,0.80
2023-05-06T18:45:43.151Z,0.90
2023-05-06T18:48:11.531Z,1.00
2023-05-06T18:50:39.324Z,1.13
2023-05-06T18:53:08.122Z,0.95
2023-05-06T18:55:35.597Z,0.90
2023-05-06T18:58:05.504Z,1.00
2023-05-06T19:00:33.137Z,1.00
2023-05-06T19:03:00.808Z,1.20
2023-05-06T19:05:28.319Z,0.98
2023-05-06T19:07:55.817Z,1.05
2023-05-06T19:10:24.705Z,1.17
2023-05-06T19:12:52.227Z,1.30
2023-05-06T19:15:19.821Z,0.77
2023-05-06T19:17:47.412Z,0.90
2023-05-06T19:20:15.255Z,0.88
2023-05-06T19:22:43.156Z,0.70
2023-05-06T19:25:11.377Z,0.80
2023-05-06T19:27:40.396Z,1.10
2023-05-06T19:30:08.922Z,0.70
2023-05-06T19:32:36.485Z,0.90
2023-05-06T19:35:07.916Z,1.35
2023-05-06T19:37:36.484Z,1.02
2023-05-06T19:40:05.082Z,1.73
2023-05-06T19:42:33.626Z,1.80
2023-05-06T19:45:07.410Z,1.98
2023-05-06T19:47:35.036Z,1.67
2023-05-06T19:50:03.236Z,2.17
2023-05-06T19:55:00.162Z,1.70
2023-05-06T19:57:27.698Z,1.73
2023-05-06T19:59:56.557Z,1.90
2023-05-06T20:02:26.635Z,1.92
2023-05-06T20:04:54.233Z,2.00
2023-05-06T20:07:22.988Z,2.22
2023-05-06T20:09:55.087Z,1.85
2023-05-06T20:12:22.893Z,1.95
2023-05-06T20:14:50.529Z,1.90
2023-05-06T20:17:18.022Z,1.55
2023-05-06T20:19:46.926Z,1.50
2023-05-06T20:22:14.699Z,1.60
2023-05-06T20:24:43.174Z,1.15
2023-05-06T20:27:10.760Z,1.33
2023-05-06T20:29:38.253Z,1.50
2023-05-06T20:32:06.321Z,1.48
2023-05-06T20:34:33.874Z,1.20
2023-05-06T20:37:03.727Z,1.60
2023-05-06T20:39:31.314Z,1.40
2023-05-06T20:41:58.863Z,1.63
2023-05-06T20:44:26.393Z,1.40
2023-05-06T20:46:53.908Z,1.77
2023-05-06T20:49:21.368Z,2.35
2023-05-06T20:51:48.820Z,2.38
2023-05-06T20:54:17.966Z,2.53
2023-05-06T20:56:45.418Z,3.00
2023-05-06T20:59:12.895Z,3.50
2023-05-06T21:01:40.498Z,3.63
2023-05-06T21:04:07.940Z,3.55
2023-05-06T21:06:35.414Z,3.50
2023-05-06T21:09:02.967Z,3.15
2023-05-06T21:11:31.796Z,3.40
2023-05-06T21:13:59.239Z,2.83
2023-05-06T21:16:26.670Z,3.00
2023-05-06T21:18:54.221Z,3.05
2023-05-06T21:21:23.993Z,2.70
2023-05-06T21:23:51.526Z,2.35
2023-05-06T21:26:19.014Z,2.25
2023-05-06T21:28:51.806Z,2.30
2023-05-06T21:31:20.545Z,2.70
2023-05-06T21:33:48.088Z,2.53
2023-05-06T21:36:15.744Z,1.63
2023-05-06T21:38:43.159Z,2.30
2023-05-06T21:41:10.641Z,2.53
2023-05-06T21:43:38.202Z,2.67
2023-05-06T21:46:07.148Z,2.35
2023-05-06T21:48:34.647Z,2.35
2023-05-06T21:51:04.089Z,2.00
2023-05-06T21:53:31.788Z,2.20
2023-05-06T21:55:59.222Z,2.20
2023-05-06T21:58:26.681Z,2.00
2023-05-06T22:00:54.243Z,2.13
2023-05-06T22:03:23.168Z,2.13
2023-05-06T22:05:50.771Z,1.90
2023-05-06T22:08:18.219Z,2.33
2023-05-06T22:10:45.699Z,1.92
2023-05-06T22:13:13.154Z,1.70
2023-05-06T22:15:41.682Z,2.00
2023-05-06T22:18:09.333Z,1.80
2023-05-06T22:20:38.699Z,1.80
2023-05-06T22:23:06.293Z,1.90
2023-05-06T22:25:33.853Z,1.60
2023-05-06T22:28:01.350Z,1.73
2023-05-06T22:30:28.879Z,1.65
2023-05-06T22:32:56.429Z,1.80
2023-05-06T22:35:24.264Z,2.10
2023-05-06T22:37:53.118Z,1.90
2023-05-06T22:40:20.792Z,2.40
2023-05-06T22:42:48.237Z,1.75
2023-05-06T22:45:15.821Z,1.92
2023-05-06T22:47:43.326Z,1.90
2023-05-06T22:50:12.090Z,1.95
2023-05-06T22:52:39.591Z,2.25
2023-05-06T22:55:10.148Z,1.80
2023-05-06T22:57:37.864Z,1.88
2023-05-06T23:00:08.107Z,2.10
2023-05-06T23:02:35.888Z,2.28
2023-05-06T23:05:03.925Z,1.65
2023-05-06T23:07:31.400Z,1.83
2023-05-06T23:09:59.654Z,1.85
2023-05-06T23:14:59.948Z,2.10
2023-05-06T23:17:27.721Z,2.10
2023-05-06T23:19:55.292Z,2.13
2023-05-06T23:22:22.748Z,2.17
2023-05-06T23:24:51.264Z,2.20
2023-05-06T23:27:18.775Z,2.13
2023-05-06T23:29:47.573Z,2.00
2023-05-06T23:32:15.077Z,2.05
2023-05-06T23:34:42.507Z,2.22
2023-05-06T23:37:11.675Z,2.30
2023-05-06T23:39:39.136Z,1.95
2023-05-06T23:42:06.780Z,2.20
2023-05-06T23:44:34.274Z,1.80
2023-05-06T23:47:05.707Z,2.33
2023-05-06T23:49:33.250Z,2.10
2023-05-06T23:52:00.798Z,1.83
2023-05-06T23:54:28.373Z,2.00
2023-05-06T23:56:56.125Z,1.75
2023-05-06T23:59:23.682Z,2.25
